Latest Weather Observations for Thargomindah

IDQ60801

Issued at 4:05 pm EST Monday 22 September 2014 (issued every 30 minutes, with the page automatically refreshed every 10 minutes)

About weather observations | Map of weather stations | Latest weather observations for QLD | Other Formats
Station Details ID: 045025 Name: THARGOMINDAH AIRPORT Lat: -27.99 Lon: 143.81 Height: 130.89 m
Data from the previous 72 hours. | See also: Recent months at Thargomindah
Date/Time
EST
Temp
°C
App
Temp
°C
Dew
Point
Rel
Hum
%
Delta-T
°C
Wind Press
QNH
hPa
Press
MSL
hPa
Rain
since 9 am
mm
Dir
 
Spd
km/h
Gust
km/h
Spd
kts
Gust
kts
22/04:00pm 24.9 19.7 7.1 32 9.4 E 24 35 13 19 1019.5 - 0.0
22/03:30pm 23.3 17.3 7.0 35 8.5 E 28 41 15 22 1019.8 - 0.0
22/03:00pm 24.2 19.1 6.0 31 9.3 E 22 41 12 22 1019.9 1019.4 0.0
22/02:30pm 24.0 18.7 6.7 33 9.0 E 24 37 13 20 1020.2 - 0.0
22/02:00pm 23.5 17.5 7.2 35 8.5 ENE 28 41 15 22 1020.5 - 0.0
22/01:30pm 23.5 18.4 7.6 36 8.4 ENE 24 35 13 19 1021.0 - 0.0
22/01:00pm 23.1 17.5 7.2 36 8.3 E 26 33 14 18 1021.5 - 0.0
22/12:30pm 22.4 16.7 8.5 41 7.4 E 28 39 15 21 1021.9 - 0.0
22/12:00pm 22.9 17.5 8.2 39 7.8 ENE 26 39 14 21 1022.5 1021.9 0.0
22/11:30am 21.9 16.6 8.4 42 7.2 E 26 35 14 19 1022.9 - 0.0
22/11:00am 21.2 16.4 8.8 45 6.6 E 24 33 13 18 1023.5 - 0.0
22/10:30am 20.5 16.1 9.1 48 6.1 E 22 32 12 17 1024.2 - 0.0
22/10:00am 20.0 16.1 9.3 50 5.7 E 20 30 11 16 1024.5 - 0.0
22/09:30am 18.7 13.9 8.9 53 5.1 E 24 33 13 18 1024.4 - 0.0
22/09:00am 18.0 13.6 9.1 56 4.6 E 22 32 12 17 1024.4 1023.9 0.0
22/08:30am 16.8 12.0 9.0 60 4.1 E 24 33 13 18 1024.7 - 0.0
22/08:00am 16.1 11.6 8.6 61 3.8 E 22 32 12 17 1024.7 - 0.0
22/07:30am 14.9 10.8 7.7 62 3.6 ESE 19 30 10 16 1024.5 - 0.0
22/07:00am 13.9 10.4 7.2 64 3.3 ESE 15 24 8 13 1024.0 - 0.0
22/06:30am 13.2 10.0 7.0 66 3.0 ESE 13 20 7 11 1023.5 - 0.0
22/06:00am 13.2 10.4 7.0 66 3.0 ESE 11 15 6 8 1023.2 1022.7 0.0
22/05:30am 13.6 10.9 7.2 65 3.1 ESE 11 17 6 9 1022.8 - 0.0
22/05:00am 13.8 10.7 7.3 65 3.2 ESE 13 19 7 10 1022.5 - 0.0
22/04:30am 14.1 11.0 7.4 64 3.3 ESE 13 20 7 11 1022.4 - 0.0
22/04:00am 14.3 11.3 7.6 64 3.3 ESE 13 19 7 10 1022.2 - 0.0
22/03:30am 14.8 11.0 7.6 62 3.6 ESE 17 24 9 13 1022.0 - 0.0
22/03:00am 15.0 11.6 7.5 61 3.7 ESE 15 22 8 12 1022.1 1021.6 0.0
22/02:30am 15.2 12.2 7.5 60 3.8 ESE 13 20 7 11 1022.4 - 0.0
22/02:00am 15.2 12.4 7.0 58 4.1 ESE 11 15 6 8 1022.6 - 0.0
22/01:30am 15.5 12.7 6.8 56 4.3 ESE 11 15 6 8 1022.9 - 0.0
22/01:00am 15.9 13.0 6.6 54 4.6 ESE 11 17 6 9 1023.1 - 0.0
22/12:30am 16.1 13.2 6.3 52 4.8 ESE 11 15 6 8 1023.3 - 0.0
22/12:00am 16.5 13.4 5.5 48 5.3 ESE 11 15 6 8 1023.3 1022.8 0.0
 
Date/Time
EST
Temp
°C
App
Temp
°C
Dew
Point
Rel
Hum
%
Delta-T
°C
Wind Press
QNH
hPa
Press
MSL
hPa
Rain
since 9 am
mm
Dir
 
Spd
km/h
Gust
km/h
Spd
kts
Gust
kts
21/11:30pm 17.2 13.8 5.8 47 5.6 E 13 17 7 9 1023.3 - 0.0
21/11:00pm 17.4 13.4 5.0 44 6.0 E 15 19 8 10 1023.5 - 0.0
21/10:30pm 18.0 13.1 4.9 42 6.3 E 20 30 11 16 1023.7 - 0.0
21/10:00pm 18.5 12.7 4.3 39 6.8 E 24 37 13 20 1023.6 - 0.0
21/09:30pm 18.8 12.1 3.8 37 7.1 E 28 43 15 23 1023.2 - 0.0
21/09:00pm 19.5 11.8 3.6 35 7.5 E 33 44 18 24 1023.0 1022.4 0.0
21/08:39pm 20.0 11.5 3.3 33 7.9 E 37 56 20 30 1022.9 - 0.0
21/08:30pm 20.3 11.8 3.1 32 8.2 E 37 52 20 28 1022.7 - 0.0
21/08:10pm 21.7 12.5 1.4 26 9.4 E 39 52 21 28 1022.0 - 0.0
21/08:04pm 22.2 14.8 -0.5 22 10.1 SE 28 50 15 27 1021.9 - 0.0
21/08:00pm 22.5 16.1 -4.5 16 11.2 SE 20 46 11 25 1021.7 - 0.0
21/07:30pm 22.4 16.8 -6.4 14 11.5 SE 15 20 8 11 1021.1 - 0.0
21/07:00pm 23.2 17.6 -6.7 13 12.0 SE 15 22 8 12 1020.5 - 0.0
21/06:30pm 23.6 17.2 -6.4 13 12.1 SE 19 28 10 15 1020.1 - 0.0
21/06:00pm 24.5 17.1 -7.9 11 12.8 SE 24 35 13 19 1019.8 1019.3 0.0
21/05:30pm 25.2 18.8 -7.3 11 13.2 SE 19 32 10 17 1019.7 - 0.0
21/05:00pm 25.6 18.6 -7.0 11 13.3 SE 22 33 12 18 1019.7 - 0.0
21/04:30pm 25.9 19.5 -6.8 11 13.4 SE 19 28 10 15 1019.6 - 0.0
21/04:00pm 26.1 19.0 -7.9 10 13.7 ESE 22 37 12 20 1019.9 - 0.0
21/03:30pm 25.6 18.2 -7.0 11 13.3 E 24 33 13 18 1020.0 - 0.0
21/03:00pm 25.9 19.3 -6.8 11 13.4 ESE 20 35 11 19 1020.1 1019.6 0.0
21/02:30pm 25.8 19.4 -6.9 11 13.4 E 19 33 10 18 1020.4 - 0.0
21/02:12pm 25.8 17.7 -6.9 11 13.4 SSE 28 46 15 25 1020.6 - 0.0
21/02:00pm 26.0 19.2 -5.6 12 13.3 E 22 32 12 17 1020.7 - 0.0
21/01:30pm 25.3 18.5 -5.1 13 12.8 SE 22 48 12 26 1021.2 - 0.0
21/01:00pm 25.1 19.1 -6.3 12 12.9 ESE 17 30 9 16 1021.7 - 0.0
21/12:30pm 24.7 17.5 -5.5 13 12.6 SE 24 33 13 18 1022.1 - 0.0
21/12:00pm 24.8 18.3 -5.5 13 12.6 ESE 20 33 11 18 1022.6 1022.1 0.0
21/11:30am 24.7 17.6 -4.6 14 12.4 ESE 24 37 13 20 1023.1 - 0.0
21/11:00am 23.1 16.2 -5.8 14 11.8 ESE 22 39 12 21 1023.4 - 0.0
21/10:30am 22.7 15.6 -4.4 16 11.3 E 24 33 13 18 1023.9 - 0.0
21/10:00am 21.9 15.3 -3.5 18 10.7 ESE 22 33 12 18 1024.2 - 0.0
21/09:30am 20.8 14.2 -3.6 19 10.2 ESE 22 32 12 17 1024.3 - 0.0
21/09:00am 18.9 12.5 -4.5 20 9.3 ESE 20 30 11 16 1024.3 1023.8 0.0
21/08:30am 18.0 11.3 -4.0 22 8.8 ESE 22 30 12 16 1024.3 - 0.0
21/08:00am 17.2 11.1 -4.1 23 8.5 ESE 19 32 10 17 1024.0 - 0.0
21/07:30am 15.8 10.8 -4.7 24 7.9 SE 13 20 7 11 1023.6 - 0.0
21/07:00am 14.9 9.5 -4.9 25 7.6 SSE 15 20 8 11 1023.2 - 0.0
21/06:30am 14.5 9.0 -5.3 25 7.5 SSE 15 19 8 10 1022.8 - 0.0
21/06:00am 14.7 9.2 -5.1 25 7.5 SSE 15 19 8 10 1022.5 1022.0 0.0
21/05:30am 15.2 10.1 -5.2 24 7.8 SSE 13 17 7 9 1022.2 - 0.0
21/05:00am 15.2 10.1 -5.2 24 7.8 SE 13 15 7 8 1021.5 - 0.0
21/04:30am 15.1 10.0 -5.3 24 7.7 SE 13 15 7 8 1021.4 - 0.0
21/04:00am 15.5 10.4 -5.5 23 8.0 SE 13 17 7 9 1021.2 - 0.0
21/03:30am 15.7 11.0 -5.3 23 8.0 SE 11 13 6 7 1021.2 - 0.0
21/03:00am 16.1 11.3 -5.6 22 8.2 SE 11 15 6 8 1021.4 1020.9 0.0
21/02:30am 16.7 11.5 -5.7 21 8.6 SE 13 17 7 9 1021.6 - 0.0
21/02:00am 17.0 11.6 -4.8 22 8.5 SSE 15 20 8 11 1021.9 - 0.0
21/01:30am 17.3 12.2 -5.2 21 8.8 SSE 13 19 7 10 1022.2 - 0.0
21/01:00am 17.7 12.6 -5.5 20 9.0 SSE 13 19 7 10 1022.3 - 0.0
21/12:30am 18.0 12.9 -5.3 20 9.1 SE 13 19 7 10 1022.4 - 0.0
21/12:00am 18.3 12.8 -5.0 20 9.2 SE 15 20 8 11 1022.4 1021.9 0.0
 
Date/Time
EST
Temp
°C
App
Temp
°C
Dew
Point
Rel
Hum
%
Delta-T
°C
Wind Press
QNH
hPa
Press
MSL
hPa
Rain
since 9 am
mm
Dir
 
Spd
km/h
Gust
km/h
Spd
kts
Gust
kts
20/11:30pm 18.6 13.2 -4.8 20 9.3 SE 15 20 8 11 1022.5 - 0.0
20/11:00pm 18.8 13.8 -4.6 20 9.4 SE 13 20 7 11 1022.7 - 0.0
20/10:30pm 19.1 14.0 -5.0 19 9.6 SE 13 19 7 10 1022.8 - 0.0
20/10:00pm 19.6 14.2 -4.6 19 9.8 SE 15 24 8 13 1022.7 - 0.0
20/09:30pm 19.6 13.9 -3.9 20 9.6 SE 17 26 9 14 1022.5 - 0.0
20/09:00pm 19.7 14.0 -3.9 20 9.6 SE 17 24 9 13 1022.3 1021.8 0.0
20/08:30pm 19.8 14.8 -4.5 19 9.8 SE 13 17 7 9 1022.3 - 0.0
20/08:00pm 20.0 15.0 -4.3 19 9.9 SE 13 19 7 10 1022.2 - 0.0
20/07:30pm 20.4 15.1 -4.0 19 10.0 SE 15 19 8 10 1021.9 - 0.0
20/07:00pm 20.6 16.0 -4.5 18 10.3 SSE 11 17 6 9 1021.7 - 0.0
20/06:30pm 20.9 16.1 -5.8 16 10.7 SE 11 17 6 9 1021.2 - 0.0
20/06:00pm 21.6 16.0 -6.1 15 11.0 SE 15 22 8 12 1020.8 1020.3 0.0
20/05:30pm 21.9 16.3 -5.9 15 11.2 SE 15 20 8 11 1020.5 - 0.0
20/05:00pm 22.1 16.6 -5.7 15 11.3 SE 15 22 8 12 1020.4 - 0.0
20/04:30pm 23.0 17.5 -5.0 15 11.6 SE 15 26 8 14 1020.4 - 0.0
20/04:00pm 22.4 17.4 -4.6 16 11.2 ESE 13 20 7 11 1020.3 - 0.0
20/03:30pm 22.2 17.1 -4.8 16 11.1 ESE 13 24 7 13 1020.4 - 0.0
20/03:00pm 22.4 17.7 -5.5 15 11.3 ESE 11 22 6 12 1020.5 1020.0 0.0
20/02:30pm 22.1 16.7 -4.9 16 11.1 ESE 15 22 8 12 1021.0 - 0.0
20/02:00pm 22.2 18.0 -4.0 17 11.0 SE 9 19 5 10 1021.3 - 0.0
20/01:30pm 21.1 16.2 -3.4 19 10.3 ESE 13 24 7 13 1021.8 - 0.0
20/01:00pm 21.9 17.0 -3.5 18 10.7 E 13 28 7 15 1022.2 - 0.0
20/12:30pm 20.9 15.7 -2.9 20 10.1 ESE 15 24 8 13 1022.5 - 0.0
20/12:00pm 20.7 15.5 -2.4 21 9.8 E 15 24 8 13 1022.6 1022.2 0.0
20/11:30am 20.0 14.4 -3.0 21 9.6 E 17 28 9 15 1022.9 - 0.0
20/11:00am 19.5 13.6 -2.2 23 9.2 ESE 19 28 10 15 1023.3 - 0.0
20/10:30am 19.8 13.9 -1.9 23 9.3 ESE 19 28 10 15 1024.0 - 0.0
20/10:00am 18.9 12.8 -2.1 24 8.9 ENE 20 28 11 15 1024.3 - 0.0
20/09:30am 18.5 13.0 -1.9 25 8.6 ESE 17 24 9 13 1024.3 - 0.0
20/09:00am 18.0 12.2 -1.8 26 8.3 E 19 26 10 14 1024.2 1023.6 0.0
20/08:30am 16.5 10.4 -2.0 28 7.6 E 20 28 11 15 1024.2 - 0.0
20/08:00am 15.6 10.6 -1.4 31 7.1 E 15 26 8 14 1024.0 - 0.0
20/07:30am 11.8 8.4 -2.4 37 5.5 ENE 6 9 3 5 1023.5 - 0.0
20/07:00am 10.9 7.6 -1.5 42 4.9 ESE 6 7 3 4 1023.5 - 0.0
20/06:30am 8.8 5.4 -2.2 46 4.2 SE 6 7 3 4 1023.2 - 0.0
20/06:00am 9.7 6.2 -1.6 45 4.4 SE 7 9 4 5 1022.9 1022.3 0.0
20/05:30am 10.0 6.1 -1.7 44 4.6 SE 9 9 5 5 1022.3 - 0.0
20/05:00am 10.0 6.4 -2.3 42 4.7 SE 7 9 4 5 1021.8 - 0.0
20/04:30am 10.9 7.0 -1.8 41 5.0 SE 9 11 5 6 1021.6 - 0.0
20/04:00am 11.2 6.9 -1.9 40 5.1 SE 11 13 6 7 1021.4 - 0.0
20/03:30am 11.3 7.7 -2.1 39 5.2 ESE 7 11 4 6 1021.4 - 0.0
20/03:00am 12.1 8.2 -1.8 38 5.5 SE 9 11 5 6 1021.3 1020.8 0.0
20/02:30am 12.4 8.4 -2.2 36 5.8 ESE 9 13 5 7 1021.5 - 0.0
20/02:00am 12.9 8.5 -2.6 34 6.1 SE 11 15 6 8 1021.6 - 0.0
20/01:30am 13.5 8.7 -2.4 33 6.3 SE 13 15 7 8 1021.7 - 0.0
20/01:00am 14.0 9.6 -2.4 32 6.6 SE 11 15 6 8 1022.0 - 0.0
20/12:30am 14.4 10.0 -2.5 31 6.8 SE 11 15 6 8 1022.1 - 0.0
20/12:00am 14.4 10.0 -2.5 31 6.7 SE 11 13 6 7 1022.1 1021.6 0.0
 
Date/Time
EST
Temp
°C
App
Temp
°C
Dew
Point
Rel
Hum
%
Delta-T
°C
Wind Press
QNH
hPa
Press
MSL
hPa
Rain
since 9 am
mm
Dir
 
Spd
km/h
Gust
km/h
Spd
kts
Gust
kts
19/11:30pm 15.0 10.2 -2.4 30 7.0 SSE 13 17 7 9 1022.1 - 0.0
19/11:00pm 15.2 10.4 -2.7 29 7.2 SSE 13 15 7 8 1022.2 - 0.0
19/10:30pm 15.7 11.3 -2.3 29 7.3 SSE 11 15 6 8 1022.1 - 0.0
19/10:00pm 16.3 11.9 -2.2 28 7.6 S 11 13 6 7 1022.1 - 0.0
19/09:30pm 17.0 12.6 -2.1 27 7.9 S 11 13 6 7 1022.0 - 0.0
19/09:00pm 18.0 13.3 -1.8 26 8.3 S 13 15 7 8 1021.7 1021.2 0.0
19/08:30pm 18.5 13.8 -1.9 25 8.6 S 13 15 7 8 1021.7 - 0.0
19/08:00pm 19.4 13.9 -2.2 23 9.1 S 17 24 9 13 1021.4 - 0.0
19/07:30pm 20.0 14.0 -1.7 23 9.3 S 20 28 11 15 1021.0 - 0.0
19/07:00pm 20.5 14.5 -1.3 23 9.5 S 20 26 11 14 1020.5 - 0.0
19/06:30pm 21.1 15.1 -1.4 22 9.8 S 20 28 11 15 1020.1 - 0.0
19/06:00pm 21.9 15.5 -2.0 20 10.4 S 22 30 12 16 1019.7 1019.2 0.0
19/05:30pm 22.6 16.5 -2.2 19 10.8 S 20 24 11 13 1019.5 - 0.0
19/05:00pm 23.2 17.2 -1.7 19 11.0 S 20 26 11 14 1019.4 - 0.0
19/04:30pm 23.7 16.5 -2.0 18 11.3 SSW 26 32 14 17 1019.2 - 0.0

Other Formats:

Comma delimited format used in spreadsheet applications
http://www.bom.gov.au/fwo/IDQ60801/IDQ60801.95492.axf

JavaScript Object Notation format (JSON) in row-major order
http://www.bom.gov.au/fwo/IDQ60801/IDQ60801.95492.json